首页
METAR-TAF:

METAR-TAF

机场 :

Albertus Airport

Freeport, 伊利诺伊州, 美国

纬度: 42-14-47N, 经度: 089-34-56W, 海拔: 262米

当前天气观测

该预报发布于24分钟前的17:55 UTC
风速9节,风向西北
温度 29°C
湿度 48%
气压 1009 hPa
能見度: 16.1公里
散云层高于7000英尺

METAR: KFEP 041755Z AUTO 32009KT 10SM SCT070 29/17 A2981 RMK AO2 T02860174 10286 20197

时间: 13:19 (18:19 UTC)


TAF: 丢失

超过4000个机场的气象观测和天气预报(METAR&TAF报告)。

可查询的气象台以黄色和红色小点在地图上表示。

将鼠标移到小点上方,可查看气象台名称。

然后点击查看天气观测和预报。

如需切换地图:点击带黑十字的绿色按钮放大地图;点击带横线的绿色按钮缩小地图;或者点击绿色箭头查看邻近地区的地图。


METAR-TAF: